Latest Weather Observations for Hamilton

IDV60801

Issued at 4:02 am EDT Saturday 28 March 2015 (issued every 30 minutes, with the page automatically refreshed every 10 minutes)

About weather observations | Map of weather stations | Latest weather observations for VIC | Other Formats
Station Details ID: 090173 Name: HAMILTON AIRPORT Lat: -37.65 Lon: 142.06 Height: 241.1 m
Data from the previous 72 hours. | See also: Recent months at Hamilton
Date/Time
EDT
Temp
°C
App
Temp
°C
Dew
Point
Rel
Hum
%
Delta-T
°C
Wind Press
QNH
hPa
Press
MSL
hPa
Rain
since 9 am
mm
Dir
 
Spd
km/h
Gust
km/h
Spd
kts
Gust
kts
28/04:00am 10.4 10.3 9.5 94 0.5 CALM 0 0 0 0 1025.3 1024.8 0.6
28/03:42am 10.5 10.4 9.6 94 0.5 CALM 0 0 0 0 1025.4 1024.9 0.6
28/03:41am 10.5 10.4 9.6 94 0.5 CALM 0 0 0 0 1025.4 1024.9 0.6
28/03:33am 10.5 10.1 9.6 94 0.5 SE 2 6 1 3 1025.5 1025.0 0.6
28/03:30am 10.5 9.7 9.6 94 0.5 SE 4 6 2 3 1025.5 1025.0 0.6
28/03:06am 10.7 9.5 9.6 93 0.6 SSE 6 7 3 4 1025.7 1025.2 0.4
28/03:03am 10.7 9.5 9.6 93 0.6 SSE 6 7 3 4 1025.7 1025.2 0.4
28/03:00am 10.7 9.5 9.5 92 0.6 SSE 6 7 3 4 1025.8 1025.3 0.4
28/02:30am 10.7 8.9 9.3 91 0.7 S 9 9 5 5 1025.9 1025.4 0.4
28/02:00am 10.8 8.9 9.2 90 0.8 SSW 9 11 5 6 1026.1 1025.6 0.4
28/01:30am 10.8 9.3 9.2 90 0.8 SSW 7 9 4 5 1026.0 1025.5 0.4
28/01:00am 10.6 9.3 9.2 91 0.7 SSE 6 7 3 4 1026.0 1025.5 0.4
28/12:30am 10.6 10.4 9.0 90 0.8 CALM 0 0 0 0 1026.3 1025.8 0.4
28/12:00am 10.7 10.5 9.1 90 0.8 CALM 0 0 0 0 1026.3 1025.8 0.4
 
Date/Time
EDT
Temp
°C
App
Temp
°C
Dew
Point
Rel
Hum
%
Delta-T
°C
Wind Press
QNH
hPa
Press
MSL
hPa
Rain
since 9 am
mm
Dir
 
Spd
km/h
Gust
km/h
Spd
kts
Gust
kts
27/11:30pm 10.6 10.0 9.0 90 0.8 ESE 2 6 1 3 1026.5 1026.0 0.4
27/11:00pm 10.3 8.6 8.4 88 0.9 SE 7 9 4 5 1026.6 1026.1 0.4
27/10:30pm 11.0 9.0 8.6 85 1.2 SE 9 13 5 7 1026.7 1026.2 0.4
27/10:00pm 11.1 9.1 8.5 84 1.3 S 9 11 5 6 1026.7 1026.2 0.4
27/09:30pm 11.2 8.4 8.4 83 1.4 S 13 15 7 8 1026.5 1026.0 0.4
27/09:00pm 12.1 9.7 8.6 79 1.7 S 11 13 6 7 1026.4 1025.9 0.4
27/08:30pm 12.2 9.7 8.3 77 2.0 S 11 17 6 9 1026.2 1025.7 0.4
27/08:00pm 12.4 9.1 8.1 75 2.1 S 15 19 8 10 1025.9 1025.4 0.4
27/07:30pm 12.6 9.5 8.7 77 2.0 SSW 15 19 8 10 1025.7 1025.2 0.4
27/07:00pm 12.9 9.9 9.2 78 1.9 S 15 17 8 9 1025.4 1024.9 0.4
27/06:30pm 12.7 10.1 9.3 80 1.7 S 13 20 7 11 1025.4 1024.9 0.4
27/06:00pm 11.8 8.7 10.2 90 0.8 SSW 17 24 9 13 1025.5 1025.0 0.4
27/05:30pm 12.4 8.7 9.4 82 1.5 SSW 19 28 10 15 1025.2 1024.7 0.4
27/05:17pm 12.5 10.0 10.9 90 0.8 SSW 15 19 8 10 1025.2 1024.7 0.4
27/05:07pm 12.1 8.2 10.7 91 0.7 SSW 22 30 12 16 1025.2 1024.7 0.4
27/05:00pm 12.3 8.1 11.0 92 0.7 SSW 24 30 13 16 1025.2 1024.7 0.4
27/04:57pm 12.6 8.8 11.2 91 0.7 SSW 22 30 12 16 1025.2 1024.7 0.4
27/04:30pm 13.1 10.1 10.6 85 1.3 S 17 24 9 13 1025.1 1024.6 0.4
27/04:23pm 13.1 10.2 11.0 87 1.1 S 17 24 9 13 1025.2 1024.7 0.4
27/04:21pm 12.9 9.9 10.8 87 1.1 S 17 24 9 13 1025.2 1024.7 0.4
27/04:08pm 13.0 10.1 11.1 88 1.0 S 17 24 9 13 1025.1 1024.6 0.4
27/04:00pm 12.9 10.8 11.1 89 1.0 S 13 17 7 9 1025.2 1024.7 0.4
27/03:30pm 13.2 9.6 10.6 84 1.4 SSW 20 28 11 15 1025.2 1024.7 0.4
27/03:00pm 15.1 11.3 9.0 67 3.1 WSW 19 24 10 13 1025.3 1024.8 0.4
27/02:30pm 13.8 9.9 8.8 72 2.6 SSW 19 22 10 12 1025.6 1025.1 0.4
27/02:00pm 14.4 10.8 8.4 67 3.0 S 17 24 9 13 1025.8 1025.3 0.4
27/01:30pm 14.1 9.6 8.5 69 2.8 SW 22 30 12 16 1026.1 1025.6 0.4
27/01:00pm 14.3 8.9 7.8 65 3.2 SW 26 33 14 18 1026.5 1026.0 0.4
27/12:30pm 13.8 9.1 7.8 67 3.0 SSW 22 32 12 17 1026.6 1026.1 0.4
27/12:00pm 13.1 8.6 8.4 73 2.4 SSW 22 32 12 17 1026.7 1026.2 0.4
27/11:30am 12.5 7.5 8.2 75 2.2 SW 24 32 13 17 1026.6 1026.1 0.4
27/11:00am 12.6 8.2 10.3 86 1.2 SW 24 35 13 19 1026.5 1026.0 0.4
27/10:30am 12.0 7.7 10.6 91 0.7 SW 24 30 13 16 1026.4 1025.9 0.4
27/10:20am 11.0 5.5 9.3 89 0.9 SW 28 35 15 19 1026.3 1025.8 0.4
27/10:02am 10.6 5.6 9.5 93 0.6 SW 26 33 14 18 1026.2 1025.7 0.2
27/10:00am 10.6 5.6 9.7 94 0.5 SW 26 33 14 18 1026.2 1025.7 0.2
27/09:39am 10.7 6.5 9.8 94 0.5 SW 22 28 12 15 1026.1 1025.6 0.2
27/09:30am 10.6 6.4 9.7 94 0.5 SW 22 30 12 16 1026.0 1025.5 0.2
27/09:22am 10.3 6.0 9.5 95 0.4 SW 22 30 12 16 1026.0 1025.5 0.2
27/09:00am 10.2 6.9 9.6 96 0.3 WSW 17 22 9 12 1025.9 1025.4 12.8
27/08:41am 10.3 7.0 9.5 95 0.4 WSW 17 22 9 12 1025.6 1025.1 12.2
27/08:30am 10.1 6.8 9.5 96 0.3 WSW 17 20 9 11 1025.5 1025.0 12.2
27/08:20am 10.1 7.2 9.5 96 0.3 SW 15 22 8 12 1025.5 1025.0 12.0
27/08:00am 10.0 7.0 9.4 96 0.3 SW 15 19 8 10 1025.2 1024.7 11.8
27/07:34am 10.0 6.2 9.2 95 0.4 WSW 19 24 10 13 1024.8 1024.3 11.4
27/07:30am 9.9 6.1 9.1 95 0.4 WSW 19 24 10 13 1024.7 1024.2 11.4
27/07:27am 9.9 6.1 9.1 95 0.4 WSW 19 24 10 13 1024.6 1024.1 11.4
27/07:00am 9.9 6.0 9.3 96 0.3 WSW 20 28 11 15 1024.5 1024.0 11.4
27/06:33am 10.0 6.6 9.2 95 0.4 WSW 17 24 9 13 1024.3 1023.8 11.2
27/06:31am 10.0 6.6 9.2 95 0.4 WSW 17 24 9 13 1024.3 1023.8 11.2
27/06:30am 10.0 6.2 9.2 95 0.4 WSW 19 24 10 13 1024.3 1023.8 11.2
27/06:17am 10.1 6.7 9.3 95 0.4 WSW 17 22 9 12 1024.1 1023.6 11.2
27/06:11am 10.1 6.4 9.3 95 0.4 WSW 19 24 10 13 1024.0 1023.5 11.0
27/06:00am 10.0 6.2 9.1 94 0.4 SW 19 26 10 14 1024.0 1023.6 11.0
27/05:59am 10.0 6.0 9.1 94 0.5 SW 20 26 11 14 1024.0 1023.5 11.0
27/05:49am 9.9 5.5 9.0 94 0.4 SW 22 30 12 16 1024.0 1023.5 11.0
27/05:30am 9.9 5.9 9.0 94 0.4 WSW 20 30 11 16 1024.0 1023.5 10.8
27/05:13am 10.3 7.7 9.5 95 0.4 WSW 13 19 7 10 1023.7 1023.3 10.4
27/05:00am 10.3 7.4 9.5 95 0.4 WSW 15 19 8 10 1023.6 1023.2 10.4
27/04:30am 10.1 6.2 9.3 95 0.4 WSW 20 28 11 15 1023.6 1023.2 10.2
27/04:26am 10.1 6.2 9.3 95 0.4 WSW 20 28 11 15 1023.5 1023.1 10.2
27/04:08am 10.2 6.3 9.4 95 0.4 WSW 20 26 11 14 1023.4 1023.0 10.2
27/04:04am 10.2 6.3 9.4 95 0.4 WSW 20 24 11 13 1023.4 1023.0 10.2
27/04:00am 10.1 6.2 9.3 95 0.4 W 20 26 11 14 1023.4 1023.0 10.2
27/03:49am 10.1 6.4 9.3 95 0.4 W 19 24 10 13 1023.4 1023.0 10.2
27/03:30am 10.1 6.4 9.3 95 0.4 W 19 22 10 12 1023.3 1022.9 10.2
27/03:01am 10.2 6.9 9.4 95 0.4 W 17 22 9 12 1023.3 1022.9 10.2
27/03:00am 10.2 6.9 9.4 95 0.4 W 17 22 9 12 1023.3 1022.9 10.2
27/02:53am 10.1 6.4 9.3 95 0.4 W 19 22 10 12 1023.3 1022.9 10.2
27/02:30am 10.2 6.9 9.4 95 0.4 W 17 22 9 12 1023.2 1022.7 10.2
27/02:00am 10.5 7.2 9.7 95 0.4 W 17 22 9 12 1023.2 1022.7 10.2
27/01:30am 10.4 6.7 9.6 95 0.4 WSW 19 24 10 13 1023.0 1022.5 10.2
27/01:00am 10.5 7.2 9.7 95 0.4 WSW 17 24 9 13 1023.1 1022.6 10.2
27/12:30am 10.6 6.8 9.8 95 0.4 WSW 20 28 11 15 1023.1 1022.6 10.2
27/12:00am 10.6 7.0 9.8 95 0.4 WSW 19 28 10 15 1023.0 1022.5 10.0
 
Date/Time
EDT
Temp
°C
App
Temp
°C
Dew
Point
Rel
Hum
%
Delta-T
°C
Wind Press
QNH
hPa
Press
MSL
hPa
Rain
since 9 am
mm
Dir
 
Spd
km/h
Gust
km/h
Spd
kts
Gust
kts
26/11:30pm 10.7 6.9 9.9 95 0.4 WSW 20 26 11 14 1022.9 1022.4 10.0
26/11:23pm 10.7 6.9 9.9 95 0.4 W 20 26 11 14 1022.9 1022.4 10.0
26/11:10pm 10.8 7.2 10.0 95 0.4 WSW 19 26 10 14 1022.9 1022.4 10.0
26/11:01pm 10.8 7.1 10.0 95 0.4 WSW 20 26 11 14 1022.8 1022.3 10.0
26/11:00pm 10.8 7.1 10.0 95 0.4 WSW 20 26 11 14 1022.8 1022.3 10.0
26/10:59pm 10.8 7.0 9.9 94 0.5 WSW 20 24 11 13 1022.8 1022.3 10.0
26/10:30pm 10.8 6.3 10.0 95 0.4 WSW 24 37 13 20 1022.7 1022.2 9.8
26/10:19pm 10.9 7.4 10.3 96 0.3 SW 19 24 10 13 1022.6 1022.1 9.8
26/10:00pm 10.9 7.2 10.1 95 0.4 SW 20 28 11 15 1022.5 1022.0 9.4
26/09:30pm 10.9 5.3 10.0 94 0.5 WSW 30 39 16 21 1021.9 1021.4 3.8
26/09:19pm 10.9 6.0 9.8 93 0.6 WSW 26 33 14 18 1021.8 1021.3 2.8
26/09:02pm 10.9 5.6 10.0 94 0.5 WSW 28 37 15 20 1021.7 1021.2 2.4
26/09:00pm 10.9 5.6 10.0 94 0.5 WSW 28 37 15 20 1021.7 1021.2 2.4
26/08:41pm 10.9 5.6 10.0 94 0.5 W 28 35 15 19 1021.4 1020.9 2.0
26/08:33pm 10.9 5.6 9.8 93 0.6 W 28 41 15 22 1021.2 1020.7 2.0
26/08:30pm 10.9 5.6 9.8 93 0.6 W 28 41 15 22 1021.1 1020.6 2.0
26/08:16pm 10.9 5.6 9.8 93 0.6 W 28 37 15 20 1021.0 1020.5 2.0
26/08:03pm 11.0 4.9 9.9 93 0.6 W 32 44 17 24 1020.9 1020.4 1.8
26/08:00pm 11.0 4.9 9.8 92 0.6 W 32 44 17 24 1020.9 1020.4 1.8
26/07:52pm 11.0 4.7 9.8 92 0.6 W 33 46 18 25 1020.7 1020.2 1.8
26/07:30pm 11.0 4.3 9.6 91 0.7 W 35 43 19 23 1020.3 1019.8 1.8
26/07:21pm 11.0 4.3 9.6 91 0.7 W 35 46 19 25 1020.2 1019.7 1.8
26/07:00pm 10.9 4.2 9.7 92 0.6 W 35 46 19 25 1020.0 1019.5 1.8
26/06:41pm 11.1 3.6 9.5 90 0.8 W 39 54 21 29 1019.6 1019.0 1.6
26/06:30pm 11.2 3.7 9.5 89 0.9 W 39 57 21 31 1019.6 1019.0 1.6
26/06:00pm 10.9 3.4 9.3 90 0.8 W 39 57 21 31 1019.2 1018.7 1.6
26/05:45pm 10.9 3.8 9.5 91 0.7 W 37 56 20 30 1019.2 1018.7 1.6
26/05:42pm 10.8 2.9 9.4 91 0.7 W 41 56 22 30 1019.0 1018.5 1.6
26/05:30pm 10.9 3.5 9.7 92 0.6 W 39 56 21 30 1019.1 1018.6 1.6
26/05:07pm 10.9 3.8 9.7 92 0.6 W 37 56 20 30 1019.0 1018.5 1.6
26/05:04pm 11.0 3.9 9.6 91 0.7 W 37 56 20 30 1019.0 1018.5 1.6
26/05:00pm 10.9 3.4 9.5 91 0.7 W 39 56 21 30 1018.9 1018.4 1.6
26/04:54pm 10.9 3.4 9.5 91 0.7 W 39 54 21 29 1018.8 1018.3 1.6
26/04:30pm 10.9 2.6 9.2 89 0.9 W 43 54 23 29 1018.7 1018.2 1.4
26/04:28pm 11.0 2.7 9.3 89 0.9 W 43 54 23 29 1018.6 1018.1 1.4
26/04:27pm 11.1 2.8 9.2 88 1.0 W 43 54 23 29 1018.6 1018.1 1.4
26/04:24pm 11.3 3.5 9.6 89 0.9 W 41 52 22 28 1018.4 1017.9 1.2
26/04:10pm 11.3 3.4 9.4 88 1.0 W 41 59 22 32 1018.5 1018.0 1.2
26/04:05pm 11.4 3.0 9.0 85 1.2 W 43 59 23 32 1018.2 1017.7 1.2
26/04:03pm 11.7 4.1 8.9 83 1.4 W 39 59 21 32 1018.2 1017.7 1.2
26/04:00pm 12.0 4.7 8.7 80 1.7 W 37 52 20 28 1018.3 1017.8 1.2
26/03:30pm 12.1 3.9 8.4 78 1.9 W 41 63 22 34 1018.2 1017.7 1.2
26/03:29pm 12.2 4.6 8.9 80 1.7 W 39 63 21 34 1018.3 1017.8 1.2
26/03:14pm 11.0 3.3 8.8 86 1.1 W 39 54 21 29 1018.4 1017.9 1.2
26/03:00pm 10.9 3.8 9.5 91 0.7 W 37 48 20 26 1018.5 1018.0 1.0
26/02:53pm 10.9 4.4 9.0 88 1.0 W 33 46 18 25 1018.6 1018.1 0.8
26/02:30pm 11.5 3.5 7.6 77 1.9 W 39 61 21 33 1018.6 1018.1 0.6
26/02:00pm 12.0 4.9 8.1 77 1.9 W 35 54 19 29 1018.6 1018.1 0.6
26/01:52pm 11.2 4.1 7.9 80 1.6 W 35 54 19 29 1018.8 1018.3 0.6
26/01:30pm 10.3 4.0 7.5 83 1.4 W 30 44 16 24 1019.0 1018.5 0.4
26/01:00pm 11.0 3.6 6.9 76 2.0 W 35 46 19 25 1018.9 1018.4 0.2
26/12:56pm 11.1 3.7 8.5 84 1.3 W 37 56 20 30 1019.0 1018.5 0.2
26/12:30pm 12.5 5.0 6.1 65 3.1 WNW 35 50 19 27 1018.8 1018.3 0.0
26/12:00pm 11.9 3.3 4.9 62 3.2 WNW 39 63 21 34 1018.9 1018.4 0.0
26/11:55am 12.4 3.3 4.1 57 3.8 WNW 41 63 22 34 1018.7 1018.2 0.0
26/11:30am 13.0 5.3 5.4 60 3.6 WNW 35 48 19 26 1018.8 1018.3 0.0
26/11:14am 13.0 5.9 5.7 61 3.5 WNW 32 50 17 27 1018.9 1018.4 0.0
26/11:00am 11.8 4.4 4.8 62 3.2 WNW 33 48 18 26 1018.9 1018.4 0.0
26/10:30am 11.0 3.7 4.5 64 3.0 WNW 32 43 17 23 1018.9 1018.4 0.0
26/10:00am 10.0 3.5 4.6 69 2.4 W 28 41 15 22 1018.7 1018.2 0.0
26/09:30am 9.2 2.8 5.2 76 1.8 WNW 28 41 15 22 1018.5 1018.0 0.0
26/09:00am 7.8 2.3 4.2 78 1.6 NW 22 26 12 14 1018.2 1017.7 2.6
26/08:30am 6.9 1.8 4.0 82 1.3 WNW 20 26 11 14 1018.1 1017.6 2.6
26/08:00am 6.5 1.0 4.2 85 1.0 WNW 22 32 12 17 1017.9 1017.4 2.6
26/07:30am 5.8 0.9 4.1 89 0.7 NW 19 22 10 12 1017.7 1017.2 2.6
26/07:00am 6.1 1.0 4.3 88 0.8 WNW 20 26 11 14 1017.1 1016.6 2.6
26/06:30am 6.3 1.3 4.5 88 0.8 WNW 20 26 11 14 1017.0 1016.5 2.6
26/06:00am 6.7 1.9 4.7 87 0.9 WNW 19 24 10 13 1016.8 1016.3 2.6
26/05:30am 6.6 2.2 4.9 89 0.8 NW 17 26 9 14 1016.7 1016.2 2.6
26/05:00am 6.0 2.0 4.8 92 0.5 NNW 15 19 8 10 1016.4 1015.9 2.6
26/04:30am 5.9 1.1 4.5 91 0.6 NNW 19 22 10 12 1016.1 1015.5 2.6
26/04:00am 5.9 1.5 4.9 93 0.4 NNW 17 20 9 11 1015.9 1015.3 2.6
26/03:30am 6.3 2.0 5.4 94 0.4 NNW 17 20 9 11 1015.9 1015.3 2.6
26/03:00am 6.7 2.5 5.8 94 0.4 NW 17 20 9 11 1015.9 1015.3 2.4
26/02:30am 6.8 2.6 5.7 93 0.5 NNW 17 20 9 11 1015.9 1015.3 2.4
26/02:00am 7.0 2.5 5.9 93 0.5 NNW 19 22 10 12 1016.0 1015.4 2.4
26/01:30am 7.2 3.5 6.1 93 0.5 NW 15 19 8 10 1016.0 1015.4 2.4
26/01:00am 7.4 3.3 6.3 93 0.5 NW 17 19 9 10 1015.8 1015.2 2.4
26/12:30am 7.7 3.3 6.6 93 0.5 NNW 19 22 10 12 1015.8 1015.2 2.4
26/12:00am 7.7 3.3 6.5 92 0.6 NNW 19 24 10 13 1015.9 1015.3 2.4
 
Date/Time
EDT
Temp
°C
App
Temp
°C
Dew
Point
Rel
Hum
%
Delta-T
°C
Wind Press
QNH
hPa
Press
MSL
hPa
Rain
since 9 am
mm
Dir
 
Spd
km/h
Gust
km/h
Spd
kts
Gust
kts
25/11:30pm 8.2 4.3 7.0 92 0.6 NW 17 22 9 12 1016.0 1015.4 2.4
25/11:00pm 8.1 4.2 6.9 92 0.6 NNW 17 24 9 13 1015.9 1015.3 2.4
25/10:30pm 8.1 4.2 7.0 93 0.5 NW 17 20 9 11 1015.4 1014.8 2.2
25/10:00pm 8.0 3.5 6.9 93 0.5 W 20 30 11 16 1015.9 1015.3 1.8
25/09:57pm 7.9 3.0 6.8 93 0.5 W 22 30 12 16 1016.0 1015.4 1.8
25/09:30pm 8.1 2.4 6.9 92 0.6 W 26 37 14 20 1016.0 1015.4 0.8
25/09:20pm 8.1 2.0 6.7 91 0.7 W 28 41 15 22 1015.7 1015.1 0.6
25/09:19pm 8.1 2.0 6.7 91 0.7 W 28 41 15 22 1015.7 1015.1 0.6
25/09:04pm 8.3 2.3 7.1 92 0.6 W 28 41 15 22 1015.4 1014.8 0.4
25/09:03pm 8.3 2.3 7.1 92 0.6 W 28 41 15 22 1015.4 1014.8 0.4
25/09:00pm 8.3 1.5 6.9 91 0.7 W 32 44 17 24 1015.4 1014.8 0.2
25/08:59pm 8.3 1.5 6.9 91 0.7 W 32 50 17 27 1015.4 1014.8 0.2
25/08:40pm 9.1 0.4 7.7 91 0.7 WSW 43 59 23 32 1014.7 1014.2 0.0
25/08:39pm 9.1 0.4 7.5 90 0.8 WSW 43 59 23 32 1014.7 1014.2 0.0
25/08:30pm 10.0 1.2 7.9 87 1.0 WSW 44 59 24 32 1014.5 1014.0 0.0
25/08:25pm 11.1 3.2 8.0 81 1.5 WSW 39 57 21 31 1014.1 1013.6 0.0
25/08:04pm 15.2 7.5 7.2 59 4.0 WNW 37 54 20 29 1013.2 1012.7 0.0
25/08:00pm 16.7 8.4 4.4 44 5.9 NW 37 59 20 32 1012.9 1012.4 0.0
25/07:49pm 16.8 9.3 4.2 43 6.0 NW 33 52 18 28 1012.7 1012.2 0.0
25/07:30pm 16.9 11.5 2.5 38 6.6 NNW 20 30 11 16 1012.6 1012.1 0.0
25/07:00pm 17.2 10.7 2.8 38 6.7 NNW 26 35 14 19 1012.5 1011.9 0.0
25/06:30pm 17.3 9.7 2.9 38 6.7 NNW 32 46 17 25 1012.4 1011.8 0.0
25/06:00pm 17.4 10.2 3.0 38 6.7 NW 30 39 16 21 1012.6 1012.1 0.0
25/05:47pm 17.4 10.1 2.6 37 6.8 NW 30 48 16 26 1012.6 1012.1 0.0
25/05:30pm 18.6 11.0 2.9 35 7.4 NNW 32 46 17 25 1012.7 1012.2 0.0
25/05:00pm 18.0 10.7 2.7 36 7.1 NW 30 39 16 21 1013.0 1012.5 0.0
25/04:30pm 17.8 9.4 1.7 34 7.3 NNW 35 44 19 24 1013.4 1012.9 0.0
25/04:00pm 17.0 10.1 2.6 38 6.6 NW 28 35 15 19 1014.0 1013.5 0.0
25/03:30pm 17.1 10.6 2.7 38 6.6 NW 26 43 14 23 1014.3 1013.8 0.0
25/03:00pm 17.4 10.4 2.2 36 7.0 NW 28 37 15 20 1014.7 1014.2 0.0
25/02:30pm 16.6 9.8 3.3 41 6.2 NNW 28 39 15 21 1015.1 1014.6 0.0
25/02:00pm 17.1 10.7 3.1 39 6.5 NW 26 39 14 21 1015.8 1015.2 0.0
25/01:30pm 15.9 9.9 3.4 43 5.8 NW 24 35 13 19 1016.2 1015.7 0.0
25/01:00pm 14.6 8.9 2.8 45 5.3 NW 22 33 12 18 1016.8 1016.3 0.0
25/12:30pm 15.1 9.9 3.6 46 5.3 NW 20 32 11 17 1017.3 1016.8 0.0
25/12:00pm 14.1 8.5 3.3 48 4.9 NNW 22 32 12 17 1017.8 1017.3 0.0
25/11:30am 14.6 9.0 3.4 47 5.1 NNW 22 30 12 16 1018.1 1017.6 0.0
25/11:00am 12.5 7.2 2.9 52 4.3 NNW 20 24 11 13 1018.2 1017.7 0.0
25/10:30am 13.0 7.8 3.4 52 4.3 NNW 20 24 11 13 1018.5 1018.0 0.0
25/10:00am 11.8 6.6 3.3 56 3.8 NNW 20 24 11 13 1018.2 1017.7 0.0
25/09:30am 11.1 6.1 3.4 59 3.4 N 19 22 10 12 1018.4 1017.9 0.0
25/09:00am 9.9 5.7 3.6 65 2.8 N 15 19 8 10 1018.8 1018.3 0.0
25/08:30am 9.3 5.9 3.9 69 2.4 N 11 13 6 7 1018.9 1018.4 0.0
25/08:00am 8.3 4.9 3.9 74 1.9 N 11 13 6 7 1018.8 1018.3 0.0
25/07:30am 7.7 5.0 3.7 76 1.7 N 7 9 4 5 1018.7 1018.2 0.0
25/07:00am 7.4 4.6 3.3 75 1.8 N 7 9 4 5 1018.8 1018.3 0.0
25/06:30am 8.0 5.2 3.1 71 2.1 N 7 9 4 5 1018.6 1018.1 0.0
25/06:00am 8.3 5.3 2.3 66 2.5 NNW 7 9 4 5 1018.7 1018.2 0.0
25/05:30am 9.7 7.1 3.0 63 2.9 WNW 6 7 3 4 1018.5 1018.0 0.0
25/05:00am 10.1 7.4 3.6 64 2.9 WNW 7 9 4 5 1018.9 1018.4 0.0
25/04:30am 10.1 8.7 3.4 63 3.0 CALM 0 0 0 0 1019.1 1018.6 0.0

Other Formats:

Comma delimited format used in spreadsheet applications
http://www.bom.gov.au/fwo/IDV60801/IDV60801.94829.axf

JavaScript Object Notation format (JSON) in row-major order
http://www.bom.gov.au/fwo/IDV60801/IDV60801.94829.json